Groton, NY (13073)

3:48 AM EDT on October 31, 2014 (GMT -0400)
Millbrook Farms | Change Station
CLOSE
Current Station
Personal Weather Station
Location: Freeville, NY
Elevation: 1430 ft
Nearby Weather Stations

Elev 1430 ft 42.56 °N, 76.32 °W | Updated 2 minutes ago

Clear
Clear
35.7 °F
Feels Like 36 °F
N
0.0
Wind Variable Wind from West
Gusts 2.0 mph

Today
High -- | Low -- °F
--% Chance of Precip.
Yesterday
High -- | Low -- °F
Precip. -- in
7:38 AM 5:59 PM
First Quarter, 52% visible
Pressure 30.04 in
Visibility 8.0 miles
Clouds Clear
Windchill 36 °F
Dew Point 33 °F
Humidity 91%
Rainfall 0.00 in
Snow Depth Not available.
UV 0 out of 12
Pollen .10 out of 12
Air Quality Not available.
Flu Activity Not available.
METAR KITH 310656Z AUTO 08004KT 8SM CLR 00/M01 A3001 RMK AO2 T00001005 SLP172

More Conditions Fewer Conditions

Pressure 30.04 in
Visibility 8.0 miles
Clouds Clear
Windchill 36 °F
Dew Point 33 °F
Humidity 91%
Rainfall 0.00 in
Snow Depth Not available.
UV 0 out of 12
Pollen .10 out of 12
Air Quality Not available.
Flu Activity Not available.
METAR KITH 310656Z AUTO 08004KT 8SM CLR 00/M01 A3001 RMK AO2 T00001005 SLP172

More Conditions Fewer Conditions

10-Day Weather Forecast

Almanac

Astronomy

Oct. 31, 2014 Rise Set
Actual Time
Civil Twilight
Nautical Twilight
Astronomical Twilight
Moon
Length of Visible Light
Length of Day
Tomorrow will be .
, % of the Moon is Illuminated

Today's Extremes

State Highs State Lows

Community

WunderPhotos

Upload Photos

1,766,573 photos uploaded!

WunderBlogs® & News

Nearby

Air Quality

  Air Quality AQ Index Pollutant
Not available.

Snow Depth

Station Depth Elevation

Earthquake Activity

City Distance Mag. Time & Date
Minimum magnitude displayed is 2.5.

Coastal Water Temperatures

Place Temperature

Nearby Weather Stations